sensor_id;sensor_type;location;lat;lon;timestamp;temperature;humidity
52979;DHT22;63430;53.186;6.598;2023-04-25T00:01:52;6.80;99.90
52979;DHT22;63430;53.186;6.598;2023-04-25T00:03:55;6.80;99.90
52979;DHT22;63430;53.186;6.598;2023-04-25T00:05:59;6.80;99.90
52979;DHT22;63430;53.186;6.598;2023-04-25T00:08:04;6.80;99.90
52979;DHT22;63430;53.186;6.598;2023-04-25T00:10:08;6.80;99.90
52979;DHT22;63430;53.186;6.598;2023-04-25T00:12:14;6.70;99.90
52979;DHT22;63430;53.186;6.598;2023-04-25T00:14:17;6.70;99.90
52979;DHT22;63430;53.186;6.598;2023-04-25T00:16:21;6.70;99.90
52979;DHT22;63430;53.186;6.598;2023-04-25T00:18:25;6.70;99.90
52979;DHT22;63430;53.186;6.598;2023-04-25T00:20:31;7.70;99.90
52979;DHT22;63430;53.186;6.598;2023-04-25T00:22:34;6.70;99.90
52979;DHT22;63430;53.186;6.598;2023-04-25T00:24:37;6.70;99.90
52979;DHT22;63430;53.186;6.598;2023-04-25T00:26:39;7.90;99.90
52979;DHT22;63430;53.186;6.598;2023-04-25T00:28:45;6.60;99.90
52979;DHT22;63430;53.186;6.598;2023-04-25T00:30:47;7.70;99.90
52979;DHT22;63430;53.186;6.598;2023-04-25T00:32:50;6.80;99.90
52979;DHT22;63430;53.186;6.598;2023-04-25T00:34:52;6.80;99.90
52979;DHT22;63430;53.186;6.598;2023-04-25T00:36:56;6.80;99.90
52979;DHT22;63430;53.186;6.598;2023-04-25T00:38:59;6.80;99.90
52979;DHT22;63430;53.186;6.598;2023-04-25T00:41:02;6.70;99.90
52979;DHT22;63430;53.186;6.598;2023-04-25T00:43:04;6.70;99.90
52979;DHT22;63430;53.186;6.598;2023-04-25T00:45:13;6.70;99.90
52979;DHT22;63430;53.186;6.598;2023-04-25T00:47:17;6.60;99.90
52979;DHT22;63430;53.186;6.598;2023-04-25T00:49:20;6.50;99.90
52979;DHT22;63430;53.186;6.598;2023-04-25T00:51:23;6.50;99.90
52979;DHT22;63430;53.186;6.598;2023-04-25T00:53:27;6.50;99.90
52979;DHT22;63430;53.186;6.598;2023-04-25T00:55:30;6.50;99.90
52979;DHT22;63430;53.186;6.598;2023-04-25T00:57:34;6.40;99.90
52979;DHT22;63430;53.186;6.598;2023-04-25T00:59:37;6.40;99.90
52979;DHT22;63430;53.186;6.598;2023-04-25T01:01:47;6.40;99.90
52979;DHT22;63430;53.186;6.598;2023-04-25T01:03:50;6.50;99.90
52979;DHT22;63430;53.186;6.598;2023-04-25T01:05:55;6.50;99.90
52979;DHT22;63430;53.186;6.598;2023-04-25T01:07:59;6.50;99.90
52979;DHT22;63430;53.186;6.598;2023-04-25T01:10:02;6.50;99.90
52979;DHT22;63430;53.186;6.598;2023-04-25T01:12:05;6.50;99.90
52979;DHT22;63430;53.186;6.598;2023-04-25T01:14:11;6.50;99.90
52979;DHT22;63430;53.186;6.598;2023-04-25T01:16:14;6.80;99.90
52979;DHT22;63430;53.186;6.598;2023-04-25T01:18:20;6.50;99.90
52979;DHT22;63430;53.186;6.598;2023-04-25T01:20:23;6.50;99.90
52979;DHT22;63430;53.186;6.598;2023-04-25T01:22:29;6.40;99.90
52979;DHT22;63430;53.186;6.598;2023-04-25T01:24:32;6.50;99.90
52979;DHT22;63430;53.186;6.598;2023-04-25T01:26:35;7.80;99.90
52979;DHT22;63430;53.186;6.598;2023-04-25T01:28:39;6.40;99.90
52979;DHT22;63430;53.186;6.598;2023-04-25T01:30:45;6.40;99.90
52979;DHT22;63430;53.186;6.598;2023-04-25T01:32:49;6.50;99.90
52979;DHT22;63430;53.186;6.598;2023-04-25T01:34:52;6.40;99.90
52979;DHT22;63430;53.186;6.598;2023-04-25T01:36:59;6.90;99.90
52979;DHT22;63430;53.186;6.598;2023-04-25T01:39:06;7.70;99.90
52979;DHT22;63430;53.186;6.598;2023-04-25T01:41:09;6.40;99.90
52979;DHT22;63430;53.186;6.598;2023-04-25T01:43:14;6.80;99.90
52979;DHT22;63430;53.186;6.598;2023-04-25T01:45:17;6.10;99.90
52979;DHT22;63430;53.186;6.598;2023-04-25T01:47:20;7.50;99.90
52979;DHT22;63430;53.186;6.598;2023-04-25T01:49:23;6.40;99.90
52979;DHT22;63430;53.186;6.598;2023-04-25T01:51:26;6.40;99.90
52979;DHT22;63430;53.186;6.598;2023-04-25T01:53:29;6.40;99.90
52979;DHT22;63430;53.186;6.598;2023-04-25T01:55:34;6.40;99.90
52979;DHT22;63430;53.186;6.598;2023-04-25T01:57:41;6.40;99.90
52979;DHT22;63430;53.186;6.598;2023-04-25T01:59:45;6.40;99.90
52979;DHT22;63430;53.186;6.598;2023-04-25T02:02:11;6.40;99.90
52979;DHT22;63430;53.186;6.598;2023-04-25T02:04:15;6.40;99.90
52979;DHT22;63430;53.186;6.598;2023-04-25T02:06:21;5.60;99.90
52979;DHT22;63430;53.186;6.598;2023-04-25T02:08:26;6.30;99.90
52979;DHT22;63430;53.186;6.598;2023-04-25T02:10:36;6.40;99.90
52979;DHT22;63430;53.186;6.598;2023-04-25T02:12:47;6.40;99.90
52979;DHT22;63430;53.186;6.598;2023-04-25T02:14:58;6.30;99.90
52979;DHT22;63430;53.186;6.598;2023-04-25T02:17:11;6.30;99.90
52979;DHT22;63430;53.186;6.598;2023-04-25T02:19:15;7.30;99.90
52979;DHT22;63430;53.186;6.598;2023-04-25T02:21:17;6.30;99.90
52979;DHT22;63430;53.186;6.598;2023-04-25T02:23:20;6.50;99.90
52979;DHT22;63430;53.186;6.598;2023-04-25T02:25:23;6.10;99.90
52979;DHT22;63430;53.186;6.598;2023-04-25T02:27:28;6.20;99.90
52979;DHT22;63430;53.186;6.598;2023-04-25T02:29:31;6.10;99.90
52979;DHT22;63430;53.186;6.598;2023-04-25T02:31:34;6.20;99.90
52979;DHT22;63430;53.186;6.598;2023-04-25T02:33:36;6.70;99.90
52979;DHT22;63430;53.186;6.598;2023-04-25T02:35:40;7.40;99.90
52979;DHT22;63430;53.186;6.598;2023-04-25T02:37:43;6.20;99.90
52979;DHT22;63430;53.186;6.598;2023-04-25T02:39:48;6.20;99.90
52979;DHT22;63430;53.186;6.598;2023-04-25T02:41:50;6.20;99.90
52979;DHT22;63430;53.186;6.598;2023-04-25T02:43:55;7.60;99.90
52979;DHT22;63430;53.186;6.598;2023-04-25T02:45:58;6.20;99.90
52979;DHT22;63430;53.186;6.598;2023-04-25T02:48:02;7.00;99.90
52979;DHT22;63430;53.186;6.598;2023-04-25T02:50:07;6.10;99.90
52979;DHT22;63430;53.186;6.598;2023-04-25T02:52:10;6.00;99.90
52979;DHT22;63430;53.186;6.598;2023-04-25T02:54:13;6.00;99.90
52979;DHT22;63430;53.186;6.598;2023-04-25T02:56:18;6.00;99.90
52979;DHT22;63430;53.186;6.598;2023-04-25T02:58:21;6.00;99.90
52979;DHT22;63430;53.186;6.598;2023-04-25T03:00:29;6.00;99.90
52979;DHT22;63430;53.186;6.598;2023-04-25T03:02:32;5.90;99.90
52979;DHT22;63430;53.186;6.598;2023-04-25T03:04:34;6.00;99.90
52979;DHT22;63430;53.186;6.598;2023-04-25T03:06:37;5.90;99.90
52979;DHT22;63430;53.186;6.598;2023-04-25T03:08:40;6.30;99.90
52979;DHT22;63430;53.186;6.598;2023-04-25T03:10:43;6.90;99.90
52979;DHT22;63430;53.186;6.598;2023-04-25T03:12:46;5.90;99.90
52979;DHT22;63430;53.186;6.598;2023-04-25T03:14:49;5.90;99.90
52979;DHT22;63430;53.186;6.598;2023-04-25T03:16:56;5.90;99.90
52979;DHT22;63430;53.186;6.598;2023-04-25T03:18:59;5.90;99.90
52979;DHT22;63430;53.186;6.598;2023-04-25T03:21:01;5.90;99.90
52979;DHT22;63430;53.186;6.598;2023-04-25T03:23:05;5.90;99.90
52979;DHT22;63430;53.186;6.598;2023-04-25T03:25:08;5.80;99.90
52979;DHT22;63430;53.186;6.598;2023-04-25T03:27:13;6.60;99.90
52979;DHT22;63430;53.186;6.598;2023-04-25T03:29:16;5.80;99.90
52979;DHT22;63430;53.186;6.598;2023-04-25T03:31:20;5.70;99.90
52979;DHT22;63430;53.186;6.598;2023-04-25T03:33:25;7.10;99.90
52979;DHT22;63430;53.186;6.598;2023-04-25T03:35:28;5.60;99.90
52979;DHT22;63430;53.186;6.598;2023-04-25T03:37:34;5.60;99.90
52979;DHT22;63430;53.186;6.598;2023-04-25T03:39:37;5.50;99.90
52979;DHT22;63430;53.186;6.598;2023-04-25T03:41:41;5.50;99.90
52979;DHT22;63430;53.186;6.598;2023-04-25T03:43:48;5.30;99.90
52979;DHT22;63430;53.186;6.598;2023-04-25T03:45:51;5.40;99.90
52979;DHT22;63430;53.186;6.598;2023-04-25T03:47:57;5.40;99.90
52979;DHT22;63430;53.186;6.598;2023-04-25T03:50:09;5.40;99.90
52979;DHT22;63430;53.186;6.598;2023-04-25T03:52:12;5.40;99.90
52979;DHT22;63430;53.186;6.598;2023-04-25T03:54:18;5.40;99.90
52979;DHT22;63430;53.186;6.598;2023-04-25T03:56:34;5.40;99.90
52979;DHT22;63430;53.186;6.598;2023-04-25T03:58:47;6.00;99.90
52979;DHT22;63430;53.186;6.598;2023-04-25T04:00:52;5.40;99.90
52979;DHT22;63430;53.186;6.598;2023-04-25T04:02:55;5.40;99.90
52979;DHT22;63430;53.186;6.598;2023-04-25T04:04:58;5.40;99.90
52979;DHT22;63430;53.186;6.598;2023-04-25T04:07:04;5.40;99.90
52979;DHT22;63430;53.186;6.598;2023-04-25T04:09:10;5.30;99.90
52979;DHT22;63430;53.186;6.598;2023-04-25T04:11:16;5.40;99.90
52979;DHT22;63430;53.186;6.598;2023-04-25T04:13:18;5.30;99.90
52979;DHT22;63430;53.186;6.598;2023-04-25T04:15:23;5.30;99.90
52979;DHT22;63430;53.186;6.598;2023-04-25T04:17:25;5.30;99.90
52979;DHT22;63430;53.186;6.598;2023-04-25T04:19:28;5.30;99.90
52979;DHT22;63430;53.186;6.598;2023-04-25T04:21:50;5.20;99.90
52979;DHT22;63430;53.186;6.598;2023-04-25T04:23:58;4.60;99.90
52979;DHT22;63430;53.186;6.598;2023-04-25T04:26:05;5.10;99.90
52979;DHT22;63430;53.186;6.598;2023-04-25T04:28:26;5.10;99.90
52979;DHT22;63430;53.186;6.598;2023-04-25T04:30:36;4.40;99.90
52979;DHT22;63430;53.186;6.598;2023-04-25T04:32:42;5.10;99.90
52979;DHT22;63430;53.186;6.598;2023-04-25T04:34:48;5.00;99.90
52979;DHT22;63430;53.186;6.598;2023-04-25T04:36:53;5.00;99.90
52979;DHT22;63430;53.186;6.598;2023-04-25T04:38:58;5.00;99.90
52979;DHT22;63430;53.186;6.598;2023-04-25T04:41:11;5.00;99.90
52979;DHT22;63430;53.186;6.598;2023-04-25T04:43:39;4.90;99.90
52979;DHT22;63430;53.186;6.598;2023-04-25T04:45:49;4.90;99.90
52979;DHT22;63430;53.186;6.598;2023-04-25T04:48:06;4.90;99.90
52979;DHT22;63430;53.186;6.598;2023-04-25T04:50:32;4.90;99.90
52979;DHT22;63430;53.186;6.598;2023-04-25T04:52:38;4.90;99.90
52979;DHT22;63430;53.186;6.598;2023-04-25T04:55:05;4.90;99.90
52979;DHT22;63430;53.186;6.598;2023-04-25T04:57:08;5.00;99.90
52979;DHT22;63430;53.186;6.598;2023-04-25T04:59:32;5.00;99.90
52979;DHT22;63430;53.186;6.598;2023-04-25T05:01:43;5.10;99.90
52979;DHT22;63430;53.186;6.598;2023-04-25T05:04:02;5.10;99.90
52979;DHT22;63430;53.186;6.598;2023-04-25T05:06:18;5.20;99.90
52979;DHT22;63430;53.186;6.598;2023-04-25T05:08:48;5.20;99.90
52979;DHT22;63430;53.186;6.598;2023-04-25T05:11:32;5.30;99.90
52979;DHT22;63430;53.186;6.598;2023-04-25T05:13:49;5.90;99.90
52979;DHT22;63430;53.186;6.598;2023-04-25T05:16:10;5.40;99.90
52979;DHT22;63430;53.186;6.598;2023-04-25T05:18:23;5.30;99.90
52979;DHT22;63430;53.186;6.598;2023-04-25T05:20:43;6.60;99.90
52979;DHT22;63430;53.186;6.598;2023-04-25T05:23:11;6.10;99.90
52979;DHT22;63430;53.186;6.598;2023-04-25T05:25:17;5.10;99.90
52979;DHT22;63430;53.186;6.598;2023-04-25T05:27:28;5.00;99.90
52979;DHT22;63430;53.186;6.598;2023-04-25T05:29:54;5.00;99.90
52979;DHT22;63430;53.186;6.598;2023-04-25T05:32:01;5.00;99.90
52979;DHT22;63430;53.186;6.598;2023-04-25T05:34:05;4.90;99.90
52979;DHT22;63430;53.186;6.598;2023-04-25T05:36:16;4.90;99.90
52979;DHT22;63430;53.186;6.598;2023-04-25T05:38:20;5.00;99.90
52979;DHT22;63430;53.186;6.598;2023-04-25T05:40:41;5.00;99.90
52979;DHT22;63430;53.186;6.598;2023-04-25T05:43:18;5.10;99.90
52979;DHT22;63430;53.186;6.598;2023-04-25T05:45:40;5.20;99.90
52979;DHT22;63430;53.186;6.598;2023-04-25T05:48:03;5.80;99.90
52979;DHT22;63430;53.186;6.598;2023-04-25T05:50:18;5.50;99.90
52979;DHT22;63430;53.186;6.598;2023-04-25T05:52:31;5.60;99.90
52979;DHT22;63430;53.186;6.598;2023-04-25T05:54:55;5.70;99.90
52979;DHT22;63430;53.186;6.598;2023-04-25T05:56:57;5.20;99.90
52979;DHT22;63430;53.186;6.598;2023-04-25T05:59:04;5.70;99.90
52979;DHT22;63430;53.186;6.598;2023-04-25T06:01:07;5.30;99.90
52979;DHT22;63430;53.186;6.598;2023-04-25T06:03:11;5.70;99.90
52979;DHT22;63430;53.186;6.598;2023-04-25T06:05:16;5.70;99.90
52979;DHT22;63430;53.186;6.598;2023-04-25T06:07:21;5.70;99.90
52979;DHT22;63430;53.186;6.598;2023-04-25T06:09:24;6.50;99.90
52979;DHT22;63430;53.186;6.598;2023-04-25T06:11:29;5.80;99.90
52979;DHT22;63430;53.186;6.598;2023-04-25T06:13:35;5.80;99.90
52979;DHT22;63430;53.186;6.598;2023-04-25T06:15:40;5.80;99.90
52979;DHT22;63430;53.186;6.598;2023-04-25T06:17:43;5.80;99.90
52979;DHT22;63430;53.186;6.598;2023-04-25T06:19:52;6.30;99.90
52979;DHT22;63430;53.186;6.598;2023-04-25T06:21:58;5.90;99.90
52979;DHT22;63430;53.186;6.598;2023-04-25T06:24:01;5.80;99.90
52979;DHT22;63430;53.186;6.598;2023-04-25T06:26:07;5.80;99.90
52979;DHT22;63430;53.186;6.598;2023-04-25T06:28:13;7.00;99.90
52979;DHT22;63430;53.186;6.598;2023-04-25T06:30:20;5.70;99.90
52979;DHT22;63430;53.186;6.598;2023-04-25T06:32:35;5.90;99.90
52979;DHT22;63430;53.186;6.598;2023-04-25T06:34:38;6.10;99.90
52979;DHT22;63430;53.186;6.598;2023-04-25T06:36:41;6.30;99.90
52979;DHT22;63430;53.186;6.598;2023-04-25T06:38:48;6.50;99.90
52979;DHT22;63430;53.186;6.598;2023-04-25T06:41:01;6.70;99.90
52979;DHT22;63430;53.186;6.598;2023-04-25T06:43:09;8.00;99.90
52979;DHT22;63430;53.186;6.598;2023-04-25T06:45:38;7.20;99.90
52979;DHT22;63430;53.186;6.598;2023-04-25T06:47:45;8.30;99.90
52979;DHT22;63430;53.186;6.598;2023-04-25T06:49:48;7.60;99.90
52979;DHT22;63430;53.186;6.598;2023-04-25T06:51:51;7.70;99.90
52979;DHT22;63430;53.186;6.598;2023-04-25T06:53:55;7.70;99.90
52979;DHT22;63430;53.186;6.598;2023-04-25T06:56:04;7.70;99.90
52979;DHT22;63430;53.186;6.598;2023-04-25T06:58:24;7.60;99.90
52979;DHT22;63430;53.186;6.598;2023-04-25T07:00:28;7.50;99.90
52979;DHT22;63430;53.186;6.598;2023-04-25T07:02:31;7.40;99.90
52979;DHT22;63430;53.186;6.598;2023-04-25T07:04:40;7.30;99.90
52979;DHT22;63430;53.186;6.598;2023-04-25T07:06:53;7.30;99.90
52979;DHT22;63430;53.186;6.598;2023-04-25T07:09:17;7.30;99.90
52979;DHT22;63430;53.186;6.598;2023-04-25T07:11:22;7.30;99.90
52979;DHT22;63430;53.186;6.598;2023-04-25T07:13:25;7.30;99.90
52979;DHT22;63430;53.186;6.598;2023-04-25T07:15:28;7.40;99.90
52979;DHT22;63430;53.186;6.598;2023-04-25T07:17:32;7.50;99.90
52979;DHT22;63430;53.186;6.598;2023-04-25T07:19:36;7.60;99.90
52979;DHT22;63430;53.186;6.598;2023-04-25T07:21:45;7.60;99.90
52979;DHT22;63430;53.186;6.598;2023-04-25T07:23:47;7.60;99.90
52979;DHT22;63430;53.186;6.598;2023-04-25T07:25:56;7.60;99.90
52979;DHT22;63430;53.186;6.598;2023-04-25T07:28:00;7.60;99.90
52979;DHT22;63430;53.186;6.598;2023-04-25T07:30:04;7.60;99.90
52979;DHT22;63430;53.186;6.598;2023-04-25T07:32:08;7.70;99.90
52979;DHT22;63430;53.186;6.598;2023-04-25T07:34:12;7.80;99.90
52979;DHT22;63430;53.186;6.598;2023-04-25T07:36:15;7.90;99.90
52979;DHT22;63430;53.186;6.598;2023-04-25T07:38:22;7.90;99.90
52979;DHT22;63430;53.186;6.598;2023-04-25T07:40:25;7.90;99.90
52979;DHT22;63430;53.186;6.598;2023-04-25T07:42:33;7.90;99.90
52979;DHT22;63430;53.186;6.598;2023-04-25T07:44:40;8.00;99.90
52979;DHT22;63430;53.186;6.598;2023-04-25T07:46:48;8.00;99.90
52979;DHT22;63430;53.186;6.598;2023-04-25T07:48:54;8.00;99.90
52979;DHT22;63430;53.186;6.598;2023-04-25T07:50:57;8.00;99.90
52979;DHT22;63430;53.186;6.598;2023-04-25T07:53:02;8.00;99.90
52979;DHT22;63430;53.186;6.598;2023-04-25T07:55:16;8.00;99.90
52979;DHT22;63430;53.186;6.598;2023-04-25T07:57:39;7.90;99.70
52979;DHT22;63430;53.186;6.598;2023-04-25T07:59:42;7.80;99.90
52979;DHT22;63430;53.186;6.598;2023-04-25T08:01:45;7.70;99.90
52979;DHT22;63430;53.186;6.598;2023-04-25T08:03:48;7.80;99.90
52979;DHT22;63430;53.186;6.598;2023-04-25T08:06:22;7.80;99.90
52979;DHT22;63430;53.186;6.598;2023-04-25T08:08:40;8.00;99.90
52979;DHT22;63430;53.186;6.598;2023-04-25T08:10:48;8.30;98.80
52979;DHT22;63430;53.186;6.598;2023-04-25T08:12:53;8.40;98.50
52979;DHT22;63430;53.186;6.598;2023-04-25T08:14:58;8.00;99.30
52979;DHT22;63430;53.186;6.598;2023-04-25T08:17:06;8.40;99.90
52979;DHT22;63430;53.186;6.598;2023-04-25T08:19:14;8.60;99.90
52979;DHT22;63430;53.186;6.598;2023-04-25T08:21:20;8.00;99.90
52979;DHT22;63430;53.186;6.598;2023-04-25T08:23:22;7.60;99.90
52979;DHT22;63430;53.186;6.598;2023-04-25T08:25:28;8.60;99.90
52979;DHT22;63430;53.186;6.598;2023-04-25T08:27:33;7.00;99.90
52979;DHT22;63430;53.186;6.598;2023-04-25T08:29:37;6.80;99.90
52979;DHT22;63430;53.186;6.598;2023-04-25T08:31:40;6.70;99.90
52979;DHT22;63430;53.186;6.598;2023-04-25T08:33:43;6.70;99.90
52979;DHT22;63430;53.186;6.598;2023-04-25T08:36:07;6.70;99.90
52979;DHT22;63430;53.186;6.598;2023-04-25T08:38:11;6.10;99.90
52979;DHT22;63430;53.186;6.598;2023-04-25T08:40:14;6.70;99.90
52979;DHT22;63430;53.186;6.598;2023-04-25T08:42:18;6.80;99.90
52979;DHT22;63430;53.186;6.598;2023-04-25T08:44:26;6.90;99.90
52979;DHT22;63430;53.186;6.598;2023-04-25T08:46:30;6.90;99.90
52979;DHT22;63430;53.186;6.598;2023-04-25T08:48:47;7.00;99.90
52979;DHT22;63430;53.186;6.598;2023-04-25T08:50:53;7.20;99.90
52979;DHT22;63430;53.186;6.598;2023-04-25T08:52:59;7.20;99.90
52979;DHT22;63430;53.186;6.598;2023-04-25T08:55:07;7.70;99.90
52979;DHT22;63430;53.186;6.598;2023-04-25T08:57:13;7.50;99.90
52979;DHT22;63430;53.186;6.598;2023-04-25T08:59:17;7.70;99.90
52979;DHT22;63430;53.186;6.598;2023-04-25T09:01:24;7.80;99.90
52979;DHT22;63430;53.186;6.598;2023-04-25T09:03:28;7.90;99.90
52979;DHT22;63430;53.186;6.598;2023-04-25T09:05:34;8.00;99.90
52979;DHT22;63430;53.186;6.598;2023-04-25T09:07:37;8.10;99.90
52979;DHT22;63430;53.186;6.598;2023-04-25T09:09:41;8.20;99.90
52979;DHT22;63430;53.186;6.598;2023-04-25T09:11:44;8.40;99.90
52979;DHT22;63430;53.186;6.598;2023-04-25T09:13:51;8.60;99.90
52979;DHT22;63430;53.186;6.598;2023-04-25T09:17:05;8.70;99.90
52979;DHT22;63430;53.186;6.598;2023-04-25T09:19:21;9.00;99.90
52979;DHT22;63430;53.186;6.598;2023-04-25T09:21:42;9.20;99.90
52979;DHT22;63430;53.186;6.598;2023-04-25T09:23:48;9.40;99.90
52979;DHT22;63430;53.186;6.598;2023-04-25T09:25:56;9.60;99.90
52979;DHT22;63430;53.186;6.598;2023-04-25T09:28:04;9.80;99.90
52979;DHT22;63430;53.186;6.598;2023-04-25T09:30:08;10.00;99.90
52979;DHT22;63430;53.186;6.598;2023-04-25T09:32:30;9.50;99.90
52979;DHT22;63430;53.186;6.598;2023-04-25T09:34:39;10.00;99.60
52979;DHT22;63430;53.186;6.598;2023-04-25T09:36:45;9.90;98.80
52979;DHT22;63430;53.186;6.598;2023-04-25T09:39:01;9.50;97.40
52979;DHT22;63430;53.186;6.598;2023-04-25T09:41:10;9.00;99.00
52979;DHT22;63430;53.186;6.598;2023-04-25T09:43:20;8.60;99.90
52979;DHT22;63430;53.186;6.598;2023-04-25T09:45:29;8.20;99.90
52979;DHT22;63430;53.186;6.598;2023-04-25T09:47:37;8.00;99.90
52979;DHT22;63430;53.186;6.598;2023-04-25T09:49:43;8.00;99.90
52979;DHT22;63430;53.186;6.598;2023-04-25T09:51:58;8.20;99.90
52979;DHT22;63430;53.186;6.598;2023-04-25T09:54:09;8.60;99.90
52979;DHT22;63430;53.186;6.598;2023-04-25T09:56:23;9.00;99.90
52979;DHT22;63430;53.186;6.598;2023-04-25T09:58:29;9.80;99.90
52979;DHT22;63430;53.186;6.598;2023-04-25T10:00:35;9.40;98.80
52979;DHT22;63430;53.186;6.598;2023-04-25T10:02:52;10.20;96.20
52979;DHT22;63430;53.186;6.598;2023-04-25T10:05:21;9.10;97.90
52979;DHT22;63430;53.186;6.598;2023-04-25T10:07:26;10.40;97.30
52979;DHT22;63430;53.186;6.598;2023-04-25T10:09:32;9.30;97.90
52979;DHT22;63430;53.186;6.598;2023-04-25T10:11:43;9.50;96.50
52979;DHT22;63430;53.186;6.598;2023-04-25T10:13:48;9.60;93.90
52979;DHT22;63430;53.186;6.598;2023-04-25T10:15:52;9.70;95.40
52979;DHT22;63430;53.186;6.598;2023-04-25T10:18:09;10.00;97.20
52979;DHT22;63430;53.186;6.598;2023-04-25T10:20:16;11.00;97.30
52979;DHT22;63430;53.186;6.598;2023-04-25T10:22:26;10.20;97.90
52979;DHT22;63430;53.186;6.598;2023-04-25T10:24:31;10.00;96.00
52979;DHT22;63430;53.186;6.598;2023-04-25T10:26:37;9.80;97.50
52979;DHT22;63430;53.186;6.598;2023-04-25T10:28:55;9.30;99.30
52979;DHT22;63430;53.186;6.598;2023-04-25T10:30:58;9.00;99.90
52979;DHT22;63430;53.186;6.598;2023-04-25T10:33:01;8.80;99.90
52979;DHT22;63430;53.186;6.598;2023-04-25T10:35:17;8.40;99.90
52979;DHT22;63430;53.186;6.598;2023-04-25T10:37:20;8.20;99.90
52979;DHT22;63430;53.186;6.598;2023-04-25T10:39:24;8.30;99.90
52979;DHT22;63430;53.186;6.598;2023-04-25T10:41:27;8.60;99.90
52979;DHT22;63430;53.186;6.598;2023-04-25T10:43:36;9.00;99.90
52979;DHT22;63430;53.186;6.598;2023-04-25T10:45:51;9.30;99.90
52979;DHT22;63430;53.186;6.598;2023-04-25T10:47:54;9.30;99.90
52979;DHT22;63430;53.186;6.598;2023-04-25T10:50:05;9.50;99.90
52979;DHT22;63430;53.186;6.598;2023-04-25T10:52:16;9.60;99.90
52979;DHT22;63430;53.186;6.598;2023-04-25T10:54:21;9.40;96.20
52979;DHT22;63430;53.186;6.598;2023-04-25T10:56:32;9.00;95.80
52979;DHT22;63430;53.186;6.598;2023-04-25T10:58:42;8.20;99.70
52979;DHT22;63430;53.186;6.598;2023-04-25T11:00:49;8.10;99.90
52979;DHT22;63430;53.186;6.598;2023-04-25T11:02:59;7.80;99.90
52979;DHT22;63430;53.186;6.598;2023-04-25T11:05:02;7.70;99.90
52979;DHT22;63430;53.186;6.598;2023-04-25T11:07:10;7.80;99.90
52979;DHT22;63430;53.186;6.598;2023-04-25T11:09:19;8.00;99.90
52979;DHT22;63430;53.186;6.598;2023-04-25T11:11:28;8.30;99.90
52979;DHT22;63430;53.186;6.598;2023-04-25T11:13:31;8.60;99.90
52979;DHT22;63430;53.186;6.598;2023-04-25T11:15:34;8.90;99.90
52979;DHT22;63430;53.186;6.598;2023-04-25T11:17:37;9.10;99.90
52979;DHT22;63430;53.186;6.598;2023-04-25T11:19:43;9.80;99.90
52979;DHT22;63430;53.186;6.598;2023-04-25T11:21:47;10.30;98.60
52979;DHT22;63430;53.186;6.598;2023-04-25T11:23:49;9.80;91.80
52979;DHT22;63430;53.186;6.598;2023-04-25T11:25:58;9.80;92.00
52979;DHT22;63430;53.186;6.598;2023-04-25T11:28:05;9.10;93.10
52979;DHT22;63430;53.186;6.598;2023-04-25T11:30:13;10.10;74.00
52979;DHT22;63430;53.186;6.598;2023-04-25T11:32:20;10.10;73.90
52979;DHT22;63430;53.186;6.598;2023-04-25T11:34:26;10.20;81.10
52979;DHT22;63430;53.186;6.598;2023-04-25T11:36:29;10.10;74.80
52979;DHT22;63430;53.186;6.598;2023-04-25T11:38:33;9.90;76.70
52979;DHT22;63430;53.186;6.598;2023-04-25T11:40:36;9.60;85.00
52979;DHT22;63430;53.186;6.598;2023-04-25T11:42:44;9.70;87.70
52979;DHT22;63430;53.186;6.598;2023-04-25T11:44:49;10.00;85.90
52979;DHT22;63430;53.186;6.598;2023-04-25T11:46:52;10.70;87.00
52979;DHT22;63430;53.186;6.598;2023-04-25T11:48:57;9.70;87.50
52979;DHT22;63430;53.186;6.598;2023-04-25T11:51:00;9.70;80.60
52979;DHT22;63430;53.186;6.598;2023-04-25T11:53:05;9.80;90.20
52979;DHT22;63430;53.186;6.598;2023-04-25T11:55:14;9.90;83.80
52979;DHT22;63430;53.186;6.598;2023-04-25T11:57:19;10.80;72.40
52979;DHT22;63430;53.186;6.598;2023-04-25T11:59:27;9.90;77.90
52979;DHT22;63430;53.186;6.598;2023-04-25T12:01:31;9.80;70.30
52979;DHT22;63430;53.186;6.598;2023-04-25T12:03:45;10.80;68.80
52979;DHT22;63430;53.186;6.598;2023-04-25T12:05:50;9.40;74.30
52979;DHT22;63430;53.186;6.598;2023-04-25T12:07:55;9.40;83.00
52979;DHT22;63430;53.186;6.598;2023-04-25T12:10:04;9.70;90.00
52979;DHT22;63430;53.186;6.598;2023-04-25T12:12:10;10.00;90.00
52979;DHT22;63430;53.186;6.598;2023-04-25T12:14:21;10.30;82.90
52979;DHT22;63430;53.186;6.598;2023-04-25T12:16:28;10.40;79.00
52979;DHT22;63430;53.186;6.598;2023-04-25T12:18:40;10.50;79.10
52979;DHT22;63430;53.186;6.598;2023-04-25T12:20:48;10.90;78.40
52979;DHT22;63430;53.186;6.598;2023-04-25T12:22:52;10.30;77.50
52979;DHT22;63430;53.186;6.598;2023-04-25T12:24:55;10.50;77.30
52979;DHT22;63430;53.186;6.598;2023-04-25T12:27:02;10.00;69.20
52979;DHT22;63430;53.186;6.598;2023-04-25T12:29:18;10.20;68.50
52979;DHT22;63430;53.186;6.598;2023-04-25T12:31:22;10.30;74.40
52979;DHT22;63430;53.186;6.598;2023-04-25T12:33:29;10.50;77.10
52979;DHT22;63430;53.186;6.598;2023-04-25T12:35:32;10.70;69.90
52979;DHT22;63430;53.186;6.598;2023-04-25T12:37:38;11.20;60.10
52979;DHT22;63430;53.186;6.598;2023-04-25T12:39:43;10.70;58.20
52979;DHT22;63430;53.186;6.598;2023-04-25T12:41:46;11.40;64.70
52979;DHT22;63430;53.186;6.598;2023-04-25T12:43:49;10.00;70.30
52979;DHT22;63430;53.186;6.598;2023-04-25T12:45:53;10.20;61.90
52979;DHT22;63430;53.186;6.598;2023-04-25T12:47:55;10.20;64.50
52979;DHT22;63430;53.186;6.598;2023-04-25T12:50:05;11.30;72.20
52979;DHT22;63430;53.186;6.598;2023-04-25T12:52:11;10.60;72.90
52979;DHT22;63430;53.186;6.598;2023-04-25T12:54:14;10.70;56.30
52979;DHT22;63430;53.186;6.598;2023-04-25T12:56:17;10.70;56.70
52979;DHT22;63430;53.186;6.598;2023-04-25T12:58:22;11.70;58.30
52979;DHT22;63430;53.186;6.598;2023-04-25T13:00:25;10.90;58.00
52979;DHT22;63430;53.186;6.598;2023-04-25T13:02:31;11.00;56.60
52979;DHT22;63430;53.186;6.598;2023-04-25T13:04:37;11.20;55.20
52979;DHT22;63430;53.186;6.598;2023-04-25T13:06:42;11.20;53.70
52979;DHT22;63430;53.186;6.598;2023-04-25T13:08:45;11.80;58.20
52979;DHT22;63430;53.186;6.598;2023-04-25T13:10:47;11.50;61.60
52979;DHT22;63430;53.186;6.598;2023-04-25T13:12:50;11.10;56.50
52979;DHT22;63430;53.186;6.598;2023-04-25T13:14:53;10.90;60.30
52979;DHT22;63430;53.186;6.598;2023-04-25T13:16:55;10.80;64.80
52979;DHT22;63430;53.186;6.598;2023-04-25T13:18:58;10.00;62.60
52979;DHT22;63430;53.186;6.598;2023-04-25T13:21:01;10.20;57.50
52979;DHT22;63430;53.186;6.598;2023-04-25T13:23:10;9.90;64.50
52979;DHT22;63430;53.186;6.598;2023-04-25T13:25:13;9.60;64.10
52979;DHT22;63430;53.186;6.598;2023-04-25T13:27:15;9.40;75.50
52979;DHT22;63430;53.186;6.598;2023-04-25T13:29:18;9.40;84.90
52979;DHT22;63430;53.186;6.598;2023-04-25T13:31:23;9.50;90.60
52979;DHT22;63430;53.186;6.598;2023-04-25T13:33:30;9.70;90.70
52979;DHT22;63430;53.186;6.598;2023-04-25T13:35:33;10.00;77.90
52979;DHT22;63430;53.186;6.598;2023-04-25T13:37:42;9.60;76.30